Maxwelton, Washington
Current Conditions -  °F | °C
As of 1:53 AM on Wednesday 22 Oct 2014 (Local Time) from KPAE Reporting Station
Light Rain Light Rain  
Wind Chill: 55°   Ceiling: 4400
Heat Index: 55°   Visibility: 9mi
Dew Point: 47°   Wind: 13mph
Humidity: 74%   Direction: 150°SSE
Pressure: 29.68"   Gusts: NA
Location:  47.9614°N, 122.409°W
Report Text: KPAE 220853Z AUTO 15011KT 9SM -RA OVC044 13/08 A2968 RMK AO2 SLP051 P0002 60006 T01280083 56027
Loading
Personal Weather Stations






























Interactive Weather Map
Tropical Storm Tracking
New forecast layout! Learn more

10-Day Weather Forecast

Advertisements
Track Severe Weather on mobile